createdAt,value
2023-03-06T08:42:52.748Z,1.05
2023-03-06T08:45:19.343Z,0.90
2023-03-06T08:47:46.038Z,1.10
2023-03-06T08:50:12.692Z,0.90
2023-03-06T08:52:39.279Z,1.15
2023-03-06T08:55:06.496Z,1.15
2023-03-06T08:57:33.165Z,1.30
2023-03-06T08:59:59.780Z,0.80
2023-03-06T09:02:26.466Z,1.00
2023-03-06T09:04:53.893Z,1.02
2023-03-06T09:07:20.523Z,1.00
2023-03-06T09:09:47.183Z,0.80
2023-03-06T09:12:13.819Z,0.57
2023-03-06T09:14:40.426Z,0.68
2023-03-06T09:17:07.052Z,0.95
2023-03-06T09:19:33.660Z,0.77
2023-03-06T09:22:01.037Z,0.80
2023-03-06T09:24:27.922Z,0.70
2023-03-06T09:26:54.540Z,0.80
2023-03-06T09:29:21.222Z,1.23
2023-03-06T09:31:48.541Z,0.50
2023-03-06T09:34:15.409Z,0.50
2023-03-06T09:36:55.634Z,0.50
2023-03-06T09:39:23.995Z,0.50
2023-03-06T09:41:51.390Z,0.40
2023-03-06T09:44:27.702Z,0.50
2023-03-06T09:47:19.111Z,0.30
2023-03-06T09:50:08.595Z,0.60
2023-03-06T09:52:47.263Z,0.45
2023-03-06T09:55:20.768Z,0.35
2023-03-06T09:58:16.863Z,0.40
2023-03-06T10:00:56.423Z,0.30
2023-03-06T10:03:54.385Z,0.50
2023-03-06T10:06:32.420Z,0.32
2023-03-06T10:09:09.506Z,0.50
2023-03-06T10:11:47.898Z,0.40
2023-03-06T10:14:35.061Z,0.43
2023-03-06T10:17:02.325Z,0.40
2023-03-06T10:19:35.789Z,0.47
2023-03-06T10:22:24.182Z,0.50
2023-03-06T10:25:06.388Z,0.40
2023-03-06T10:27:47.581Z,0.40
2023-03-06T10:30:23.677Z,0.35
2023-03-06T10:32:57.713Z,0.30
2023-03-06T10:35:48.200Z,0.32
2023-03-06T10:38:30.110Z,0.30
2023-03-06T10:41:11.846Z,0.30
2023-03-06T10:43:41.350Z,0.50
2023-03-06T10:46:10.112Z,0.22
2023-03-06T10:48:40.971Z,0.50
2023-03-06T10:51:19.412Z,0.30
2023-03-06T10:53:55.324Z,0.40
2023-03-06T10:56:39.700Z,0.38
2023-03-06T10:59:07.811Z,0.40
2023-03-06T11:01:34.729Z,0.47
2023-03-06T11:04:24.547Z,0.47
2023-03-06T11:07:12.568Z,0.73
2023-03-06T11:09:39.282Z,0.65
2023-03-06T11:12:26.219Z,0.50
2023-03-06T11:15:21.242Z,0.70
2023-03-06T11:18:06.433Z,0.90
2023-03-06T11:20:52.167Z,0.20
2023-03-06T11:23:33.148Z,0.55
2023-03-06T11:26:17.808Z,0.70
2023-03-06T11:29:16.591Z,0.85
2023-03-06T11:31:51.097Z,1.08
2023-03-06T11:37:20.722Z,0.43
2023-03-06T11:40:05.460Z,0.93
2023-03-06T11:42:39.057Z,0.70
2023-03-06T11:45:14.770Z,0.80
2023-03-06T11:47:48.985Z,0.90
2023-03-06T11:50:34.010Z,0.50
2023-03-06T11:53:03.280Z,0.80
2023-03-06T11:55:49.391Z,0.93
2023-03-06T11:58:49.320Z,1.02
2023-03-06T12:01:29.932Z,0.65
2023-03-06T12:04:11.956Z,1.00
2023-03-06T12:06:53.690Z,1.00
2023-03-06T12:09:42.987Z,0.90
2023-03-06T12:12:34.715Z,0.95
2023-03-06T12:15:41.697Z,1.23
2023-03-06T12:18:29.493Z,1.27
2023-03-06T12:21:10.578Z,1.35
2023-03-06T12:24:01.791Z,1.40
2023-03-06T12:26:46.888Z,1.70
2023-03-06T12:29:53.379Z,1.40
2023-03-06T12:32:57.793Z,1.30
2023-03-06T12:36:02.989Z,1.48
2023-03-06T12:38:59.987Z,1.83
2023-03-06T12:41:43.415Z,2.15
2023-03-06T12:44:49.168Z,1.80
2023-03-06T12:47:20.121Z,2.15
2023-03-06T12:49:54.650Z,2.50
2023-03-06T12:52:30.352Z,2.58
2023-03-06T12:54:59.589Z,2.60
2023-03-06T12:57:27.018Z,2.55
2023-03-06T12:59:54.877Z,2.88
2023-03-06T13:02:39.294Z,3.30
2023-03-06T13:05:21.556Z,2.65
2023-03-06T13:08:10.255Z,3.63
2023-03-06T13:10:39.684Z,3.08
2023-03-06T13:13:42.628Z,4.05
2023-03-06T13:16:18.335Z,3.83
2023-03-06T13:18:46.979Z,4.10
2023-03-06T13:21:41.446Z,3.72
2023-03-06T13:24:21.363Z,4.95
2023-03-06T13:26:52.897Z,3.38
2023-03-06T13:29:37.437Z,4.82
2023-03-06T13:32:04.091Z,5.38
2023-03-06T13:34:40.701Z,5.78
2023-03-06T13:37:23.434Z,5.97
2023-03-06T13:39:56.665Z,7.38
2023-03-06T13:42:31.018Z,7.68
2023-03-06T13:45:08.639Z,6.75
2023-03-06T13:48:02.451Z,6.45
2023-03-06T13:50:47.040Z,5.90
2023-03-06T13:53:27.788Z,4.85
2023-03-06T13:56:33.926Z,5.53
2023-03-06T13:59:35.014Z,4.63
2023-03-06T14:02:20.675Z,4.90
2023-03-06T14:04:54.494Z,5.40
2023-03-06T14:07:31.061Z,4.32
2023-03-06T14:09:57.602Z,4.22
2023-03-06T14:12:30.191Z,3.10
2023-03-06T14:15:17.010Z,3.92
2023-03-06T14:18:05.806Z,3.75
2023-03-06T14:20:43.564Z,3.05
2023-03-06T14:23:14.040Z,3.53
2023-03-06T14:25:42.714Z,3.50
2023-03-06T14:28:28.903Z,3.65
2023-03-06T14:30:56.921Z,3.67
2023-03-06T14:33:32.167Z,4.20
2023-03-06T14:36:02.702Z,3.50
2023-03-06T14:38:37.721Z,3.13
2023-03-06T14:41:06.251Z,4.28
2023-03-06T14:43:33.340Z,4.43
2023-03-06T14:46:06.315Z,4.28
2023-03-06T14:48:44.299Z,2.63
2023-03-06T14:51:20.966Z,3.75
2023-03-06T14:53:50.151Z,3.47
2023-03-06T14:56:22.610Z,3.08
2023-03-06T14:59:04.757Z,3.20
2023-03-06T15:01:37.982Z,3.70
2023-03-06T15:04:17.731Z,3.90
2023-03-06T15:06:45.129Z,3.30
2023-03-06T15:09:24.382Z,3.28
2023-03-06T15:12:01.222Z,3.78
2023-03-06T15:14:39.828Z,3.63
2023-03-06T15:17:22.437Z,3.22
2023-03-06T15:19:54.589Z,2.97
2023-03-06T15:22:32.943Z,2.80
2023-03-06T15:25:19.616Z,2.28
2023-03-06T15:28:21.468Z,2.53
2023-03-06T15:31:02.707Z,2.88
2023-03-06T15:33:29.432Z,3.28
2023-03-06T15:35:58.473Z,2.35
2023-03-06T15:38:29.929Z,3.15
2023-03-06T15:40:58.869Z,3.28
2023-03-06T15:43:27.453Z,4.70
2023-03-06T15:46:01.492Z,4.47
2023-03-06T15:48:28.474Z,4.70
2023-03-06T15:50:55.231Z,3.70
2023-03-06T15:53:21.997Z,4.97
2023-03-06T15:55:50.207Z,5.15
2023-03-06T15:58:24.822Z,5.88
2023-03-06T16:00:53.861Z,5.32
2023-03-06T16:03:20.624Z,5.65
2023-03-06T16:05:47.271Z,6.50
2023-03-06T16:08:14.993Z,5.78
2023-03-06T16:10:43.868Z,6.60
2023-03-06T16:13:15.144Z,7.70
2023-03-06T16:15:47.749Z,7.55
2023-03-06T16:18:14.490Z,7.35
2023-03-06T16:20:41.619Z,8.07
2023-03-06T16:23:10.632Z,9.07
2023-03-06T16:25:40.898Z,7.18
2023-03-06T16:28:15.475Z,9.20
2023-03-06T16:30:44.144Z,9.45
2023-03-06T16:33:14.235Z,7.97
2023-03-06T16:35:44.264Z,8.60
2023-03-06T16:38:11.335Z,6.90
2023-03-06T16:40:41.187Z,6.80
2023-03-06T16:43:08.962Z,7.88
2023-03-06T16:45:37.727Z,9.80
2023-03-06T16:48:04.768Z,10.40
2023-03-06T16:50:36.208Z,10.13
2023-03-06T16:53:03.367Z,8.85
2023-03-06T16:55:30.114Z,9.98
2023-03-06T16:57:56.753Z,9.52
2023-03-06T17:00:31.125Z,7.30
2023-03-06T17:05:24.450Z,7.55
2023-03-06T17:07:51.342Z,8.00
2023-03-06T17:10:19.334Z,9.02
2023-03-06T17:12:45.977Z,8.55
2023-03-06T17:15:12.672Z,9.63
2023-03-06T17:17:39.324Z,9.63
2023-03-06T17:20:08.050Z,9.82
2023-03-06T17:22:36.386Z,8.95
2023-03-06T17:25:04.995Z,8.45
2023-03-06T17:27:31.614Z,6.97
2023-03-06T17:29:58.497Z,8.00
2023-03-06T17:32:25.952Z,8.95
2023-03-06T17:34:52.878Z,7.70
2023-03-06T17:37:20.474Z,6.05
2023-03-06T17:39:47.244Z,8.88
2023-03-06T17:42:14.025Z,9.93
2023-03-06T17:44:40.730Z,7.70
2023-03-06T17:47:07.427Z,8.55
2023-03-06T17:49:34.093Z,11.10
2023-03-06T17:52:02.794Z,7.88
2023-03-06T17:54:30.149Z,7.97
2023-03-06T17:57:00.948Z,9.38
2023-03-06T17:59:28.096Z,9.40
2023-03-06T18:01:58.724Z,8.05
2023-03-06T18:04:26.095Z,9.10
2023-03-06T18:06:52.867Z,10.57
2023-03-06T18:09:19.585Z,10.30
2023-03-06T18:11:46.341Z,8.43
2023-03-06T18:14:12.988Z,7.10
2023-03-06T18:16:39.703Z,8.90
2023-03-06T18:19:07.114Z,11.13
2023-03-06T18:21:33.752Z,10.40
2023-03-06T18:24:00.468Z,8.95
2023-03-06T18:26:29.248Z,9.45
2023-03-06T18:29:04.311Z,9.35
2023-03-06T18:31:34.760Z,8.90
2023-03-06T18:34:06.470Z,9.23
2023-03-06T18:36:34.953Z,11.45
2023-03-06T18:39:03.871Z,8.95
2023-03-06T18:41:31.396Z,7.72
2023-03-06T18:44:00.453Z,9.43
2023-03-06T18:46:31.383Z,9.73
2023-03-06T18:48:58.609Z,8.18
2023-03-06T18:51:25.590Z,10.52
2023-03-06T18:53:52.304Z,10.82
2023-03-06T18:56:22.293Z,8.60
2023-03-06T18:58:50.553Z,10.45
2023-03-06T19:01:21.228Z,8.95
2023-03-06T19:03:48.311Z,10.23
2023-03-06T19:06:20.288Z,9.10
2023-03-06T19:08:47.012Z,11.48
2023-03-06T19:11:16.349Z,11.23
2023-03-06T19:13:44.019Z,8.80
2023-03-06T19:16:21.422Z,10.60
2023-03-06T19:18:48.520Z,12.95
2023-03-06T19:21:19.094Z,11.05
2023-03-06T19:23:46.591Z,9.43
2023-03-06T19:26:14.488Z,12.30
2023-03-06T19:28:46.232Z,12.20
2023-03-06T19:31:14.496Z,13.30
2023-03-06T19:33:42.592Z,12.95
2023-03-06T19:36:12.238Z,10.02
2023-03-06T19:38:41.993Z,10.23
2023-03-06T19:41:13.964Z,13.73
2023-03-06T19:43:43.114Z,11.95
2023-03-06T19:46:14.111Z,9.80
2023-03-06T19:48:44.351Z,12.60
2023-03-06T19:51:11.362Z,12.20
2023-03-06T19:53:39.941Z,13.32
2023-03-06T19:56:11.209Z,12.80
2023-03-06T19:58:38.299Z,10.45
2023-03-06T20:01:16.273Z,11.20
2023-03-06T20:03:43.775Z,12.40
2023-03-06T20:06:18.461Z,11.25
2023-03-06T20:08:48.278Z,13.82
2023-03-06T20:11:19.718Z,13.13
2023-03-06T20:13:47.956Z,12.25
2023-03-06T20:16:18.124Z,12.30
2023-03-06T20:18:45.659Z,8.02
2023-03-06T20:21:12.986Z,10.20
2023-03-06T20:23:39.931Z,13.15
2023-03-06T20:26:14.854Z,13.45
2023-03-06T20:28:42.385Z,9.70
2023-03-06T20:31:17.845Z,9.98
2023-03-06T20:33:50.433Z,9.50
2023-03-06T20:36:23.036Z,10.68
2023-03-06T20:38:50.496Z,11.75
2023-03-06T20:41:19.166Z,10.63
2023-03-06T20:43:45.887Z,10.68
2023-03-06T20:46:13.511Z,9.68
2023-03-06T20:48:41.421Z,11.02
2023-03-06T20:51:25.588Z,9.98
2023-03-06T20:53:53.485Z,10.25
2023-03-06T20:56:24.590Z,9.27
2023-03-06T20:58:52.100Z,9.55
2023-03-06T21:01:41.587Z,11.68
2023-03-06T21:04:10.159Z,13.45
2023-03-06T21:06:37.951Z,10.50
2023-03-06T21:09:06.222Z,10.13
2023-03-06T21:11:34.710Z,10.38
2023-03-06T21:14:01.445Z,10.02
2023-03-06T21:16:30.166Z,9.52
2023-03-06T21:18:58.572Z,12.43
2023-03-06T21:21:28.856Z,10.25
2023-03-06T21:23:55.813Z,9.32
2023-03-06T21:26:25.046Z,11.82
2023-03-06T21:28:52.171Z,9.93
2023-03-06T21:31:20.614Z,9.10
2023-03-06T21:33:48.709Z,9.40
2023-03-06T21:36:16.328Z,7.53
2023-03-06T21:38:42.932Z,9.10
2023-03-06T21:41:14.893Z,8.73
2023-03-06T21:43:42.699Z,7.65
2023-03-06T21:46:10.300Z,7.53
2023-03-06T21:48:37.407Z,6.10
2023-03-06T21:51:12.559Z,6.32
2023-03-06T21:53:42.432Z,4.50
2023-03-06T21:56:10.456Z,4.60
2023-03-06T21:58:37.320Z,4.10
2023-03-06T22:01:09.657Z,3.50
2023-03-06T22:03:36.412Z,2.08
2023-03-06T22:06:17.341Z,3.17
2023-03-06T22:08:44.158Z,2.80
2023-03-06T22:11:14.364Z,2.50
2023-03-06T22:13:41.357Z,2.50
2023-03-06T22:16:08.624Z,2.80
2023-03-06T22:18:35.626Z,1.88
2023-03-06T22:21:09.806Z,2.67
2023-03-06T22:23:36.649Z,2.13
2023-03-06T22:26:05.058Z,1.58
2023-03-06T22:28:34.485Z,2.15
2023-03-06T22:31:05.492Z,2.47
2023-03-06T22:33:32.111Z,1.70
2023-03-06T22:36:07.666Z,2.40
2023-03-06T22:38:36.051Z,1.92
2023-03-06T22:41:03.560Z,2.00
2023-03-06T22:43:30.279Z,1.85
2023-03-06T22:46:06.163Z,1.77
2023-03-06T22:48:34.365Z,1.90
2023-03-06T22:51:12.990Z,2.03
2023-03-06T22:53:40.034Z,2.42
2023-03-06T22:56:08.448Z,2.60
2023-03-06T22:58:37.255Z,2.53
2023-03-06T23:01:05.357Z,2.85
2023-03-06T23:03:32.203Z,2.63
2023-03-06T23:05:58.806Z,2.65
2023-03-06T23:08:25.508Z,2.40
2023-03-06T23:10:52.161Z,1.83
2023-03-06T23:13:18.742Z,2.17
2023-03-06T23:15:45.369Z,2.35
2023-03-06T23:18:11.994Z,1.92
2023-03-06T23:20:44.800Z,2.10
2023-03-06T23:23:11.803Z,2.67
2023-03-06T23:25:38.877Z,2.80
2023-03-06T23:28:05.527Z,2.40
2023-03-06T23:30:32.143Z,2.50
2023-03-06T23:32:58.776Z,1.52
2023-03-06T23:35:25.723Z,2.97
2023-03-06T23:37:52.397Z,2.22
2023-03-06T23:40:19.084Z,2.13
2023-03-06T23:42:45.948Z,2.30
2023-03-06T23:45:13.202Z,1.83
2023-03-06T23:47:40.030Z,2.17
2023-03-06T23:50:06.952Z,2.33
2023-03-06T23:52:33.571Z,2.03
2023-03-06T23:55:00.275Z,2.75
2023-03-06T23:57:27.022Z,1.90
2023-03-06T23:59:53.643Z,1.92
